LFRDLFOV

Guest
Details From LFRD - Dinard Pleurtuit-St Malo
To LFOV - Laval Entrammes
Flight Number -
Tags generated
Created
Modified
Stats Distance 63 nm / 117 km
Max Altitude 5,200 ft / 1,585 m
Waypoints 3
Social Downloads 0
Likes 0
Share VATSIM

Download

Looking for another format? Having issues loading an existing format? Contact us
Advertisement - Login to hide

Notes

Basic altitude profile: - Ascent Rate: 2500ft/min - Ascent Speed: 250kts - Cruise Altitude: 35000ft - Cruise Speed: 420kts - Descent Rate: 1500ft/min - Descent Speed: 250kts Options: - Use NATs: yes - Use PACOTS: yes - Use low airways: yes - Use high airways: yes

Route

LFRD SAMPO LFOV

ID Type Via Altitude Latitude Longitude Leg Dist Tot Dist Heading (true) Name
O LFRD APT - 0 ft / 0 m 48.58798˚ -2.07992˚ - 0 nm - Dinard Pleurtuit-St Malo
SAMPO FIX - 5,200 ft / 1,585 m 48.22000˚ -1.28222˚ 38 nm 38 nm 124° / 125° -
O LFOV APT - 0 ft / 0 m 48.03136˚ -0.74299˚ 24 nm 63 nm 117° / 118° Laval Entrammes

Altitude Profile

Advertisement - Login to hide

LFRD

Details ICAO LFRD (DNR)
Name Dinard Pleurtuit-St Malo
Region France
Timezone Europe/Paris (UTC+1.0)
Stats Elevation 216 ft / 66 m (AMSL)
Location 48.587983° -2.079916°
Runways 2
Magnetic Variation 0.798° W

METAR

LFRD 152000Z AUTO 36013KT 9999 FEW033 07/02 Q1010 NOSIG

Decode

TAF

TAF LFRD 151700Z 1518/1618 34015G25KT 9999 BKN030 BECMG 1519/1521 34014KT PROB30 TEMPO 1601/1608 5000 SHRA BKN020TCU TEMPO 1608/1612 34015G25KT 5000 SHRA BKN020TCU BECMG 1616/1618 30010KT

Decode

Departure Runways

ID Width Length Bearing (true) Bearing (mag) Surface Threshold Offset Overrun Length
12 148 ft / 45 m 4,909 ft / 1,496 m 115.13° 115.93° Asphalt 0 ft / 0 m 0 ft / 0 m
17 148 ft / 45 m 7,199 ft / 2,194 m 170.09° 170.89° Asphalt 0 ft / 0 m 0 ft / 0 m
30 148 ft / 45 m 4,909 ft / 1,496 m 295.14° 295.94° Asphalt 669 ft / 204 m 0 ft / 0 m
35 148 ft / 45 m 7,199 ft / 2,194 m 350.10° 350.90° Asphalt 0 ft / 0 m 0 ft / 0 m

LFOV

Details ICAO LFOV (LVA)
Name Laval Entrammes
Region France
Timezone Europe/Paris (UTC+1.0)
Stats Elevation 330 ft / 101 m (AMSL)
Location 48.031360° -0.742988°
Runways 1
Magnetic Variation 0.311° W

METAR

LFOV 152000Z AUTO 32006KT 280V340 CAVOK 04/01 Q1008

Decode

TAF

Not found

Destination Runways

ID Width Length Bearing (true) Bearing (mag) Surface Threshold Offset Overrun Length
15 98 ft / 30 m 5,004 ft / 1,525 m 142.43° 142.74° Asphalt 0 ft / 0 m 197 ft / 60 m
33 98 ft / 30 m 5,004 ft / 1,525 m 322.44° 322.75° Asphalt 985 ft / 300 m 197 ft / 60 m